createdAt,value
2023-11-23T00:03:20.713Z,16.98
2023-11-23T00:08:22.201Z,18.08
2023-11-23T00:13:23.652Z,16.77
2023-11-23T00:18:25.250Z,17.23
2023-11-23T00:23:26.803Z,18.00
2023-11-23T00:28:28.278Z,18.15
2023-11-23T00:33:29.895Z,17.52
2023-11-23T00:38:31.498Z,19.05
2023-11-23T00:43:32.977Z,18.73
2023-11-23T00:48:34.565Z,18.02
2023-11-23T00:53:36.139Z,17.50
2023-11-23T00:58:37.724Z,16.73
2023-11-23T01:03:39.915Z,16.15
2023-11-23T01:08:41.528Z,17.75
2023-11-23T01:13:43.107Z,17.75
2023-11-23T01:18:44.818Z,16.10
2023-11-23T01:23:46.889Z,18.02
2023-11-23T01:28:48.451Z,17.42
2023-11-23T01:33:49.980Z,17.83
2023-11-23T01:38:51.542Z,18.20
2023-11-23T01:43:53.100Z,18.83
2023-11-23T01:48:56.616Z,19.13
2023-11-23T01:53:59.292Z,16.98
2023-11-23T01:59:00.936Z,18.13
2023-11-23T02:04:03.032Z,16.60
2023-11-23T02:09:04.913Z,16.75
2023-11-23T02:14:07.891Z,16.67
2023-11-23T02:19:09.745Z,17.38
2023-11-23T02:24:12.861Z,17.50
2023-11-23T02:29:14.584Z,17.25
2023-11-23T02:34:16.070Z,17.17
2023-11-23T02:39:17.623Z,17.40
2023-11-23T02:44:19.181Z,17.10
2023-11-23T02:49:20.670Z,17.60
2023-11-23T02:54:22.232Z,15.93
2023-11-23T02:59:23.809Z,17.98
2023-11-23T03:04:25.380Z,17.48
2023-11-23T03:09:26.871Z,17.70
2023-11-23T03:14:28.561Z,16.73
2023-11-23T03:19:30.112Z,16.77
2023-11-23T03:24:32.123Z,16.42
2023-11-23T03:29:34.815Z,16.40
2023-11-23T03:34:36.265Z,15.48
2023-11-23T03:39:37.753Z,15.90
2023-11-23T03:44:39.253Z,14.98
2023-11-23T03:49:40.729Z,15.02
2023-11-23T03:54:42.232Z,15.18
2023-11-23T03:59:43.724Z,14.77
2023-11-23T04:04:45.187Z,13.50
2023-11-23T04:09:46.678Z,15.43
2023-11-23T04:14:48.229Z,14.23
2023-11-23T04:19:49.726Z,15.65
2023-11-23T04:24:51.254Z,13.02
2023-11-23T04:29:52.790Z,12.38
2023-11-23T04:34:54.272Z,13.02
2023-11-23T04:39:55.763Z,11.15
2023-11-23T04:44:57.243Z,12.27
2023-11-23T04:49:59.332Z,13.40
2023-11-23T04:55:00.835Z,12.13
2023-11-23T05:00:02.381Z,11.20
2023-11-23T05:05:04.256Z,11.38
2023-11-23T05:10:09.158Z,10.20
2023-11-23T05:15:11.214Z,10.68
2023-11-23T05:20:13.715Z,10.35
2023-11-23T05:25:15.928Z,11.00
2023-11-23T05:30:21.079Z,11.18
2023-11-23T05:35:22.617Z,11.50
2023-11-23T05:40:24.172Z,11.45
2023-11-23T05:45:26.792Z,11.95
2023-11-23T05:50:28.267Z,11.80
2023-11-23T05:55:29.844Z,11.30
2023-11-23T06:00:32.447Z,10.48
2023-11-23T06:05:34.132Z,9.75
2023-11-23T06:10:35.687Z,9.75
2023-11-23T06:15:37.144Z,9.65
2023-11-23T06:20:38.628Z,8.65
2023-11-23T06:25:40.471Z,10.35
2023-11-23T06:30:42.026Z,9.57
2023-11-23T06:35:44.158Z,9.65
2023-11-23T06:40:45.797Z,10.30
2023-11-23T06:45:47.461Z,9.52
2023-11-23T06:50:49.020Z,8.45
2023-11-23T06:55:50.482Z,9.38
2023-11-23T07:00:51.923Z,10.00
2023-11-23T07:05:53.402Z,8.85
2023-11-23T07:10:55.079Z,8.30
2023-11-23T07:15:56.550Z,8.27
2023-11-23T07:20:58.794Z,9.30
2023-11-23T07:26:00.326Z,9.10
2023-11-23T07:31:02.388Z,8.93
2023-11-23T07:36:05.074Z,9.18
2023-11-23T07:41:07.868Z,8.55
2023-11-23T07:46:10.334Z,8.40
2023-11-23T07:51:11.799Z,8.00
2023-11-23T07:56:15.972Z,8.15
2023-11-23T08:01:17.439Z,8.23
2023-11-23T08:06:20.631Z,8.43
2023-11-23T08:11:22.698Z,8.80
2023-11-23T08:16:24.469Z,7.38
2023-11-23T08:21:26.335Z,7.18
2023-11-23T08:26:29.293Z,7.50
2023-11-23T08:31:30.841Z,7.63
2023-11-23T08:36:32.407Z,8.25
2023-11-23T08:41:33.921Z,6.85
2023-11-23T08:46:36.290Z,8.10
2023-11-23T08:51:38.501Z,7.10
2023-11-23T08:56:39.964Z,6.97
2023-11-23T09:01:44.836Z,7.68
2023-11-23T09:06:48.651Z,7.78
2023-11-23T09:11:50.137Z,6.72
2023-11-23T09:16:51.678Z,6.93
2023-11-23T09:21:54.656Z,7.13
2023-11-23T09:26:56.120Z,6.50
2023-11-23T09:31:57.609Z,6.45
2023-11-23T09:36:59.399Z,6.25
2023-11-23T09:42:05.192Z,5.53
2023-11-23T09:47:07.200Z,5.82
2023-11-23T09:52:08.691Z,5.28
2023-11-23T09:57:10.237Z,4.60
2023-11-23T10:02:15.126Z,4.85
2023-11-23T10:07:17.930Z,5.10
2023-11-23T10:12:20.315Z,4.45
2023-11-23T10:17:22.051Z,4.20
2023-11-23T10:22:23.592Z,5.30
2023-11-23T10:27:25.150Z,5.78
2023-11-23T10:32:27.667Z,6.00
2023-11-23T10:37:30.649Z,5.22
2023-11-23T10:42:36.653Z,5.25
2023-11-23T10:47:39.481Z,4.90
2023-11-23T10:52:45.645Z,4.93
2023-11-23T10:57:57.285Z,4.97
2023-11-23T11:03:01.401Z,6.03
2023-11-23T11:08:06.410Z,4.50
2023-11-23T11:13:11.861Z,5.03
2023-11-23T11:18:13.464Z,4.35
2023-11-23T11:23:15.244Z,5.10
2023-11-23T11:28:16.759Z,4.45
2023-11-23T11:33:19.158Z,4.85
2023-11-23T11:38:20.769Z,4.13
2023-11-23T11:43:22.494Z,4.75
2023-11-23T11:48:24.064Z,4.57
2023-11-23T11:53:26.007Z,4.75
2023-11-23T11:58:28.025Z,5.03
2023-11-23T12:03:29.569Z,5.07
2023-11-23T12:08:37.840Z,4.85
2023-11-23T12:13:39.310Z,4.30
2023-11-23T12:18:41.992Z,4.82
2023-11-23T12:23:44.633Z,4.10
2023-11-23T12:28:50.501Z,4.43
2023-11-23T12:33:51.965Z,4.45
2023-11-23T12:38:53.533Z,4.40
2023-11-23T12:43:55.066Z,4.90
2023-11-23T12:48:56.570Z,5.50
2023-11-23T12:53:58.302Z,4.50
2023-11-23T12:58:59.761Z,4.20
2023-11-23T13:04:04.893Z,4.78
2023-11-23T13:09:13.005Z,5.95
2023-11-23T13:14:16.708Z,4.45
2023-11-23T13:19:27.028Z,5.45
2023-11-23T13:24:37.816Z,4.38
2023-11-23T13:29:39.653Z,5.25
2023-11-23T13:34:41.751Z,4.80
2023-11-23T13:39:43.309Z,4.07
2023-11-23T13:44:45.875Z,5.00
2023-11-23T13:49:47.368Z,5.20
2023-11-23T13:54:49.315Z,4.60
2023-11-23T13:59:51.012Z,4.70
2023-11-23T14:04:52.855Z,4.32
2023-11-23T14:09:54.309Z,4.63
2023-11-23T14:14:55.900Z,5.32
2023-11-23T14:19:59.435Z,5.53
2023-11-23T14:25:01.836Z,4.57
2023-11-23T14:30:04.847Z,4.85
2023-11-23T14:35:07.761Z,5.97
2023-11-23T14:40:20.113Z,5.78
2023-11-23T14:45:22.957Z,5.47
2023-11-23T14:50:29.488Z,5.18
2023-11-23T14:55:31.216Z,5.47
2023-11-23T15:00:32.717Z,5.20
2023-11-23T15:05:34.208Z,6.30
2023-11-23T15:10:35.774Z,5.70
2023-11-23T15:15:37.418Z,5.55
2023-11-23T15:20:40.228Z,6.55
2023-11-23T15:25:46.957Z,6.50
2023-11-23T15:30:48.772Z,6.00
2023-11-23T15:35:50.705Z,5.18
2023-11-23T15:40:52.232Z,5.78
2023-11-23T15:45:53.735Z,4.65
2023-11-23T15:50:55.252Z,5.15
2023-11-23T15:55:56.745Z,5.47
2023-11-23T16:00:58.265Z,5.28
2023-11-23T16:05:59.864Z,4.70
2023-11-23T16:11:01.800Z,5.05
2023-11-23T16:16:03.338Z,4.55
2023-11-23T16:21:06.550Z,4.78
2023-11-23T16:26:08.072Z,3.85
2023-11-23T16:31:09.567Z,4.35
2023-11-23T16:36:26.397Z,4.28
2023-11-23T16:41:35.088Z,4.35
2023-11-23T16:46:36.586Z,4.00
2023-11-23T16:51:39.180Z,4.22
2023-11-23T16:56:40.666Z,4.38
2023-11-23T17:01:42.296Z,4.00
2023-11-23T17:06:45.359Z,4.32
2023-11-23T17:11:50.859Z,4.85
2023-11-23T17:16:53.332Z,4.03
2023-11-23T17:21:57.866Z,4.47
2023-11-23T17:26:59.409Z,3.67
2023-11-23T17:32:04.532Z,3.30
2023-11-23T17:37:06.091Z,4.25
2023-11-23T17:42:07.808Z,3.78
2023-11-23T17:47:09.463Z,3.55
2023-11-23T17:52:11.747Z,3.15
2023-11-23T17:57:13.314Z,3.13
2023-11-23T18:02:19.936Z,3.28
2023-11-23T18:07:21.692Z,3.35
2023-11-23T18:12:23.691Z,3.00
2023-11-23T18:17:25.241Z,2.65
2023-11-23T18:22:26.947Z,2.25
2023-11-23T18:27:28.466Z,3.13
2023-11-23T18:32:33.282Z,4.20
2023-11-23T18:37:34.955Z,4.25
2023-11-23T18:42:40.308Z,4.30
2023-11-23T18:47:45.398Z,4.47
2023-11-23T18:52:46.911Z,4.88
2023-11-23T18:57:48.418Z,4.57
2023-11-23T19:02:51.333Z,4.05
2023-11-23T19:07:53.350Z,4.68
2023-11-23T19:13:03.497Z,4.80
2023-11-23T19:18:09.004Z,4.55
2023-11-23T19:23:11.302Z,4.40
2023-11-23T19:28:13.240Z,5.05
2023-11-23T19:33:15.071Z,4.70
2023-11-23T19:38:16.753Z,5.70
2023-11-23T19:43:18.632Z,4.90
2023-11-23T19:48:20.473Z,4.53
2023-11-23T19:53:26.815Z,4.70
2023-11-23T19:58:28.359Z,4.28
2023-11-23T20:03:29.927Z,4.07
2023-11-23T20:08:32.602Z,4.68
2023-11-23T20:13:34.167Z,3.75
2023-11-23T20:18:35.771Z,3.50
2023-11-23T20:23:39.578Z,3.00
2023-11-23T20:28:41.171Z,2.70
2023-11-23T20:33:42.793Z,3.13
2023-11-23T20:38:45.244Z,3.65
2023-11-23T20:43:46.742Z,3.60
2023-11-23T20:48:50.942Z,3.60
2023-11-23T20:53:53.795Z,2.58
2023-11-23T20:58:59.661Z,2.30
2023-11-23T21:04:01.803Z,2.22
2023-11-23T21:09:04.562Z,2.10
2023-11-23T21:14:08.249Z,2.08
2023-11-23T21:19:09.835Z,2.00
2023-11-23T21:24:11.645Z,2.08
2023-11-23T21:29:13.192Z,2.03
2023-11-23T21:34:14.881Z,1.90
2023-11-23T21:39:17.314Z,1.95
2023-11-23T21:44:20.393Z,1.90
2023-11-23T21:49:21.990Z,2.00
2023-11-23T21:54:23.503Z,1.80
2023-11-23T21:59:26.687Z,2.15
2023-11-23T22:04:28.141Z,1.90
2023-11-23T22:09:31.505Z,2.00
2023-11-23T22:14:33.144Z,1.73
2023-11-23T22:19:34.870Z,2.20
2023-11-23T22:24:36.753Z,1.80
2023-11-23T22:29:38.288Z,1.80
2023-11-23T22:34:40.357Z,1.60
2023-11-23T22:39:42.220Z,1.90
2023-11-23T22:44:44.041Z,1.85
2023-11-23T22:49:45.526Z,1.50
2023-11-23T22:54:47.797Z,1.45
2023-11-23T22:59:49.335Z,1.90
2023-11-23T23:04:52.581Z,1.88
2023-11-23T23:09:54.253Z,2.15
2023-11-23T23:14:55.759Z,2.15
2023-11-23T23:19:57.218Z,2.30
2023-11-23T23:24:58.799Z,2.85
2023-11-23T23:30:00.309Z,1.75
2023-11-23T23:35:01.736Z,0.95
2023-11-23T23:40:05.670Z,0.52
2023-11-23T23:45:07.672Z,0.50
2023-11-23T23:50:09.500Z,0.50
2023-11-23T23:55:11.084Z,0.50
